Soaring Guidance
Issued by NWS Reno, NV

Current Version | Previous Version | Text Only | Print | Product List | Glossary On
Versions: 1 2 3 4 5 6 7
000
UXUS97 KREV 211334
SRGREV

SOARING FORECAST
NATIONAL WEATHER SERVICE - RENO NV
700 AM PDT WED JUN 21 2017

THIS SOARING FORECAST IS FOR THE EASTERN SIERRA AND WESTERN NEVADA
WITH SPECIFIC INDICES FOR THE GREATER RENO AREA.

THIS FORECAST IS PREPARED DAILY BY 700 AM AND IS NOT UPDATED.

FOR CURRENT FLIGHT CONDITIONS...FORECASTS...AND ADVISORIES...ACCESS
YOUR LOCAL BRIEFING OUTLET OR FLIGHT SERVICE STATION.

*******************************************************************
FORECASTED LOCAL INDICES FOR RENO:        TODAY     YESTERDAY
FORECASTED MAX TEMP AT RENO (DEG F).....     99         104
FORECASTED TRIGGER TEMPERATURE (DEG F)..     85          87
   EXCEEDED YESTERDAY BY 1055 AM PDT
FORECASTED MAXIMUM ALTITUDE (FT MSL)....  17800       18000
FORECASTED SOARING INDEX (FPM)..........   1164        1260
FORECASTED K-INDEX.........VALID 18Z....     27          28
FORECASTED K-INDEX.........VALID 00Z....     32          24
FORECASTED LIFTED INDEX....VALID 18Z....     -1           0
FORECASTED LIFTED INDEX....VALID 00Z....     -2           0

AFTERNOON WINDS ALOFT FORECAST
MSL (FT) WIND/TEMP
9000  0216/+19
10000 0214/+16
12000 0211/+11
14000 0611/+04
16000 1011/-02
18000 1411/-08
24000 1106/-20
30000 0210/-33
34000 2723/-42
39000 2530/-51

SLIDE MOUNTAIN DATA:
     DATE       TIME     TEMP  DEWPT   RH         WIND (MPH)
                        (F)   (F)           | DIR  SPEED GUST
2017-06-20    01:50      62    34     23    | 121   16   20
2017-06-20    01:30      63    34     22    | 130   14   16
2017-06-20    01:20      63    32     20    | 126   15   17
2017-06-20    01:00      62    36     26    | 119   14   16

RENO TAF FORECAST:
KRNO 211120Z 2112/2212 VRB04KT P6SM SKC
     FM212000 01010KT P6SM FEW080
     FM212300 34009KT P6SM VCSH BKN060
     FM220500 VRB03KT P6SM SKC

CARSON CITY TAF FORECAST:
KCXP 211120Z 2112/2212 VRB03KT P6SM SKC
     FM211900 34008KT P6SM FEW080
     FM212300 34009KT P6SM VCSH BKN060
     FM220300 02009KT P6SM SKC

OUTLOOK FOR THE RENO-CARSON CITY-MINDEN AREA:
.THURSDAY...SUNNY. HIGHS 91 TO 101. NORTHEAST WINDS UP TO 10 MPH.

SUNRISE AND SUNSET
JUNE 21 2017..........SUNRISE   532 AM PDT   SUNSET   830 PM PDT
JUNE 22 2017..........SUNRISE   532 AM PDT   SUNSET   830 PM PDT



USA.gov is the U.S. government's official web portal to all federal, state and local government web resources and services.